sensor_id;sensor_type;location;lat;lon;timestamp;P1;durP1;ratioP1;P2;durP2;ratioP2
1384;SDS011;686;51.080;13.716;2022-07-06T00:02:15;7.00;;;5.97;;
1384;SDS011;686;51.080;13.716;2022-07-06T00:04:41;7.07;;;4.90;;
1384;SDS011;686;51.080;13.716;2022-07-06T00:07:06;5.70;;;4.90;;
1384;SDS011;686;51.080;13.716;2022-07-06T00:09:32;5.83;;;4.50;;
1384;SDS011;686;51.080;13.716;2022-07-06T00:11:59;4.67;;;3.63;;
1384;SDS011;686;51.080;13.716;2022-07-06T00:14:24;9.77;;;3.80;;
1384;SDS011;686;51.080;13.716;2022-07-06T00:16:50;6.20;;;3.70;;
1384;SDS011;686;51.080;13.716;2022-07-06T00:19:16;6.37;;;3.90;;
1384;SDS011;686;51.080;13.716;2022-07-06T00:21:41;5.40;;;4.20;;
1384;SDS011;686;51.080;13.716;2022-07-06T00:24:07;6.83;;;4.40;;
1384;SDS011;686;51.080;13.716;2022-07-06T00:26:33;5.50;;;4.47;;
1384;SDS011;686;51.080;13.716;2022-07-06T00:28:59;4.10;;;3.57;;
1384;SDS011;686;51.080;13.716;2022-07-06T00:31:24;6.27;;;4.70;;
1384;SDS011;686;51.080;13.716;2022-07-06T00:33:50;5.20;;;4.57;;
1384;SDS011;686;51.080;13.716;2022-07-06T00:36:16;6.60;;;5.10;;
1384;SDS011;686;51.080;13.716;2022-07-06T00:38:42;7.67;;;5.33;;
1384;SDS011;686;51.080;13.716;2022-07-06T00:41:08;6.13;;;3.60;;
1384;SDS011;686;51.080;13.716;2022-07-06T00:46:16;5.00;;;3.60;;
1384;SDS011;686;51.080;13.716;2022-07-06T00:48:41;5.70;;;3.60;;
1384;SDS011;686;51.080;13.716;2022-07-06T00:51:07;8.33;;;4.40;;
1384;SDS011;686;51.080;13.716;2022-07-06T00:53:33;4.30;;;3.90;;
1384;SDS011;686;51.080;13.716;2022-07-06T00:55:59;5.37;;;3.37;;
1384;SDS011;686;51.080;13.716;2022-07-06T00:58:26;4.83;;;4.43;;
1384;SDS011;686;51.080;13.716;2022-07-06T01:00:52;4.30;;;3.40;;
1384;SDS011;686;51.080;13.716;2022-07-06T01:03:17;4.63;;;4.00;;
1384;SDS011;686;51.080;13.716;2022-07-06T01:05:43;4.23;;;3.77;;
1384;SDS011;686;51.080;13.716;2022-07-06T01:08:09;3.40;;;3.20;;
1384;SDS011;686;51.080;13.716;2022-07-06T01:10:36;4.57;;;4.20;;
1384;SDS011;686;51.080;13.716;2022-07-06T01:13:02;6.87;;;4.40;;
1384;SDS011;686;51.080;13.716;2022-07-06T01:15:27;4.23;;;3.83;;
1384;SDS011;686;51.080;13.716;2022-07-06T01:17:53;5.57;;;3.60;;
1384;SDS011;686;51.080;13.716;2022-07-06T01:20:20;4.30;;;3.90;;
1384;SDS011;686;51.080;13.716;2022-07-06T01:22:47;5.10;;;3.80;;
1384;SDS011;686;51.080;13.716;2022-07-06T01:25:14;4.37;;;4.03;;
1384;SDS011;686;51.080;13.716;2022-07-06T01:27:41;4.77;;;4.37;;
1384;SDS011;686;51.080;13.716;2022-07-06T01:30:15;6.17;;;4.53;;
1384;SDS011;686;51.080;13.716;2022-07-06T01:32:42;4.30;;;4.00;;
1384;SDS011;686;51.080;13.716;2022-07-06T01:35:10;3.87;;;3.50;;
1384;SDS011;686;51.080;13.716;2022-07-06T01:37:39;5.60;;;3.93;;
1384;SDS011;686;51.080;13.716;2022-07-06T01:40:06;4.23;;;3.63;;
1384;SDS011;686;51.080;13.716;2022-07-06T01:42:33;4.70;;;4.30;;
1384;SDS011;686;51.080;13.716;2022-07-06T01:44:59;4.37;;;3.97;;
1384;SDS011;686;51.080;13.716;2022-07-06T01:47:25;3.63;;;3.37;;
1384;SDS011;686;51.080;13.716;2022-07-06T01:49:51;7.63;;;3.87;;
1384;SDS011;686;51.080;13.716;2022-07-06T01:52:16;4.30;;;3.90;;
1384;SDS011;686;51.080;13.716;2022-07-06T01:54:43;3.93;;;3.50;;
1384;SDS011;686;51.080;13.716;2022-07-06T01:57:09;5.47;;;3.87;;
1384;SDS011;686;51.080;13.716;2022-07-06T01:59:34;5.30;;;3.00;;
1384;SDS011;686;51.080;13.716;2022-07-06T02:02:00;8.10;;;4.50;;
1384;SDS011;686;51.080;13.716;2022-07-06T02:04:26;5.73;;;4.47;;
1384;SDS011;686;51.080;13.716;2022-07-06T02:06:52;6.07;;;4.03;;
1384;SDS011;686;51.080;13.716;2022-07-06T02:09:18;8.10;;;3.83;;
1384;SDS011;686;51.080;13.716;2022-07-06T02:11:44;4.50;;;4.10;;
1384;SDS011;686;51.080;13.716;2022-07-06T02:14:10;6.17;;;3.50;;
1384;SDS011;686;51.080;13.716;2022-07-06T02:16:36;3.80;;;3.50;;
1384;SDS011;686;51.080;13.716;2022-07-06T02:19:01;4.50;;;3.47;;
1384;SDS011;686;51.080;13.716;2022-07-06T02:21:27;4.10;;;3.80;;
1384;SDS011;686;51.080;13.716;2022-07-06T02:23:53;5.13;;;4.20;;
1384;SDS011;686;51.080;13.716;2022-07-06T02:26:19;4.70;;;4.07;;
1384;SDS011;686;51.080;13.716;2022-07-06T02:28:56;5.20;;;3.50;;
1384;SDS011;686;51.080;13.716;2022-07-06T02:32:15;4.73;;;4.00;;
1384;SDS011;686;51.080;13.716;2022-07-06T02:35:23;4.10;;;3.70;;
1384;SDS011;686;51.080;13.716;2022-07-06T02:45:56;5.40;;;3.90;;
1384;SDS011;686;51.080;13.716;2022-07-06T03:15:09;5.87;;;4.03;;
1384;SDS011;686;51.080;13.716;2022-07-06T03:18:16;4.67;;;4.27;;
1384;SDS011;686;51.080;13.716;2022-07-06T03:21:20;4.40;;;4.00;;
1384;SDS011;686;51.080;13.716;2022-07-06T03:29:29;4.80;;;4.10;;
1384;SDS011;686;51.080;13.716;2022-07-06T03:31:55;9.93;;;4.40;;
1384;SDS011;686;51.080;13.716;2022-07-06T03:34:20;5.00;;;4.50;;
1384;SDS011;686;51.080;13.716;2022-07-06T03:36:46;9.00;;;5.60;;
1384;SDS011;686;51.080;13.716;2022-07-06T03:39:12;5.10;;;4.60;;
1384;SDS011;686;51.080;13.716;2022-07-06T03:48:24;6.47;;;5.83;;
1384;SDS011;686;51.080;13.716;2022-07-06T03:58:57;6.23;;;4.80;;
1384;SDS011;686;51.080;13.716;2022-07-06T04:01:27;12.57;;;5.23;;
1384;SDS011;686;51.080;13.716;2022-07-06T04:03:53;6.10;;;4.70;;
1384;SDS011;686;51.080;13.716;2022-07-06T04:06:19;8.27;;;4.50;;
1384;SDS011;686;51.080;13.716;2022-07-06T04:08:45;6.93;;;3.87;;
1384;SDS011;686;51.080;13.716;2022-07-06T04:11:11;5.63;;;4.30;;
1384;SDS011;686;51.080;13.716;2022-07-06T04:13:37;5.07;;;4.50;;
1384;SDS011;686;51.080;13.716;2022-07-06T04:16:04;7.27;;;6.40;;
1384;SDS011;686;51.080;13.716;2022-07-06T04:18:30;7.77;;;5.30;;
1384;SDS011;686;51.080;13.716;2022-07-06T04:20:56;5.30;;;4.80;;
1384;SDS011;686;51.080;13.716;2022-07-06T04:23:22;5.63;;;5.13;;
1384;SDS011;686;51.080;13.716;2022-07-06T04:25:48;7.03;;;5.00;;
1384;SDS011;686;51.080;13.716;2022-07-06T04:28:14;6.97;;;5.40;;
1384;SDS011;686;51.080;13.716;2022-07-06T04:30:39;5.80;;;4.20;;
1384;SDS011;686;51.080;13.716;2022-07-06T04:33:05;12.60;;;4.40;;
1384;SDS011;686;51.080;13.716;2022-07-06T04:35:31;3.97;;;3.67;;
1384;SDS011;686;51.080;13.716;2022-07-06T04:37:57;4.60;;;3.77;;
1384;SDS011;686;51.080;13.716;2022-07-06T04:40:23;8.20;;;4.20;;
1384;SDS011;686;51.080;13.716;2022-07-06T04:42:48;6.43;;;4.43;;
1384;SDS011;686;51.080;13.716;2022-07-06T04:45:14;7.40;;;4.63;;
1384;SDS011;686;51.080;13.716;2022-07-06T04:47:40;6.50;;;4.30;;
1384;SDS011;686;51.080;13.716;2022-07-06T04:50:05;9.27;;;5.40;;
1384;SDS011;686;51.080;13.716;2022-07-06T04:52:31;5.40;;;4.90;;
1384;SDS011;686;51.080;13.716;2022-07-06T04:54:57;5.90;;;4.60;;
1384;SDS011;686;51.080;13.716;2022-07-06T04:57:23;9.60;;;4.50;;
1384;SDS011;686;51.080;13.716;2022-07-06T04:59:51;12.80;;;5.03;;
1384;SDS011;686;51.080;13.716;2022-07-06T05:02:17;9.50;;;4.70;;
1384;SDS011;686;51.080;13.716;2022-07-06T05:04:43;5.13;;;4.27;;
1384;SDS011;686;51.080;13.716;2022-07-06T05:07:09;4.30;;;3.90;;
1384;SDS011;686;51.080;13.716;2022-07-06T05:09:34;5.93;;;4.07;;
1384;SDS011;686;51.080;13.716;2022-07-06T05:12:00;7.80;;;4.57;;
1384;SDS011;686;51.080;13.716;2022-07-06T05:14:26;7.00;;;4.07;;
1384;SDS011;686;51.080;13.716;2022-07-06T05:16:51;4.97;;;4.47;;
1384;SDS011;686;51.080;13.716;2022-07-06T05:19:17;5.20;;;4.37;;
1384;SDS011;686;51.080;13.716;2022-07-06T05:21:43;4.57;;;4.17;;
1384;SDS011;686;51.080;13.716;2022-07-06T05:24:08;5.27;;;4.80;;
1384;SDS011;686;51.080;13.716;2022-07-06T05:26:34;10.93;;;5.60;;
1384;SDS011;686;51.080;13.716;2022-07-06T05:29:00;6.87;;;4.40;;
1384;SDS011;686;51.080;13.716;2022-07-06T05:31:25;4.67;;;4.27;;
1384;SDS011;686;51.080;13.716;2022-07-06T05:33:51;10.00;;;5.57;;
1384;SDS011;686;51.080;13.716;2022-07-06T05:36:17;5.97;;;4.30;;
1384;SDS011;686;51.080;13.716;2022-07-06T05:38:43;4.93;;;4.50;;
1384;SDS011;686;51.080;13.716;2022-07-06T05:41:09;12.63;;;5.00;;
1384;SDS011;686;51.080;13.716;2022-07-06T05:43:36;4.70;;;4.00;;
1384;SDS011;686;51.080;13.716;2022-07-06T05:46:02;9.73;;;4.80;;
1384;SDS011;686;51.080;13.716;2022-07-06T05:48:28;4.50;;;3.90;;
1384;SDS011;686;51.080;13.716;2022-07-06T05:51:13;4.87;;;4.33;;
1384;SDS011;686;51.080;13.716;2022-07-06T05:53:39;6.00;;;4.07;;
1384;SDS011;686;51.080;13.716;2022-07-06T05:56:04;4.33;;;4.03;;
1384;SDS011;686;51.080;13.716;2022-07-06T05:58:30;9.77;;;3.80;;
1384;SDS011;686;51.080;13.716;2022-07-06T06:00:56;7.80;;;4.63;;
1384;SDS011;686;51.080;13.716;2022-07-06T06:03:22;5.40;;;4.13;;
1384;SDS011;686;51.080;13.716;2022-07-06T06:05:48;6.20;;;3.40;;
1384;SDS011;686;51.080;13.716;2022-07-06T06:08:14;4.53;;;3.63;;
1384;SDS011;686;51.080;13.716;2022-07-06T06:10:40;4.27;;;3.30;;
1384;SDS011;686;51.080;13.716;2022-07-06T06:13:06;3.80;;;3.10;;
1384;SDS011;686;51.080;13.716;2022-07-06T06:15:31;4.07;;;3.43;;
1384;SDS011;686;51.080;13.716;2022-07-06T06:17:57;6.00;;;3.00;;
1384;SDS011;686;51.080;13.716;2022-07-06T06:20:23;2.93;;;2.67;;
1384;SDS011;686;51.080;13.716;2022-07-06T06:22:53;8.07;;;3.53;;
1384;SDS011;686;51.080;13.716;2022-07-06T06:25:41;6.43;;;3.37;;
1384;SDS011;686;51.080;13.716;2022-07-06T06:28:07;2.97;;;2.23;;
1384;SDS011;686;51.080;13.716;2022-07-06T06:30:33;3.50;;;2.90;;
1384;SDS011;686;51.080;13.716;2022-07-06T06:35:31;8.00;;;2.80;;
1384;SDS011;686;51.080;13.716;2022-07-06T06:37:57;5.00;;;2.77;;
1384;SDS011;686;51.080;13.716;2022-07-06T06:40:22;6.30;;;3.17;;
1384;SDS011;686;51.080;13.716;2022-07-06T06:42:49;4.80;;;2.47;;
1384;SDS011;686;51.080;13.716;2022-07-06T06:45:15;3.97;;;2.47;;
1384;SDS011;686;51.080;13.716;2022-07-06T06:47:40;2.67;;;2.30;;
1384;SDS011;686;51.080;13.716;2022-07-06T06:50:06;10.57;;;3.33;;
1384;SDS011;686;51.080;13.716;2022-07-06T06:52:32;6.43;;;2.70;;
1384;SDS011;686;51.080;13.716;2022-07-06T06:54:58;7.93;;;3.33;;
1384;SDS011;686;51.080;13.716;2022-07-06T06:57:24;3.90;;;2.80;;
1384;SDS011;686;51.080;13.716;2022-07-06T06:59:51;8.13;;;2.60;;
1384;SDS011;686;51.080;13.716;2022-07-06T07:02:16;5.50;;;3.17;;
1384;SDS011;686;51.080;13.716;2022-07-06T07:04:42;3.10;;;2.30;;
1384;SDS011;686;51.080;13.716;2022-07-06T07:07:08;5.40;;;3.00;;
1384;SDS011;686;51.080;13.716;2022-07-06T07:09:34;2.43;;;2.07;;
1384;SDS011;686;51.080;13.716;2022-07-06T07:12:00;4.83;;;2.70;;
1384;SDS011;686;51.080;13.716;2022-07-06T07:14:25;4.37;;;2.20;;
1384;SDS011;686;51.080;13.716;2022-07-06T07:16:52;5.47;;;1.73;;
1384;SDS011;686;51.080;13.716;2022-07-06T07:19:18;9.20;;;2.73;;
1384;SDS011;686;51.080;13.716;2022-07-06T07:21:44;3.10;;;2.27;;
1384;SDS011;686;51.080;13.716;2022-07-06T07:24:10;5.77;;;2.80;;
1384;SDS011;686;51.080;13.716;2022-07-06T07:26:36;5.33;;;2.43;;
1384;SDS011;686;51.080;13.716;2022-07-06T07:29:02;3.03;;;2.07;;
1384;SDS011;686;51.080;13.716;2022-07-06T07:31:27;7.40;;;2.70;;
1384;SDS011;686;51.080;13.716;2022-07-06T07:33:53;3.90;;;1.90;;
1384;SDS011;686;51.080;13.716;2022-07-06T07:36:22;3.20;;;2.00;;
1384;SDS011;686;51.080;13.716;2022-07-06T07:38:49;10.70;;;2.37;;
1384;SDS011;686;51.080;13.716;2022-07-06T07:41:15;4.20;;;2.20;;
1384;SDS011;686;51.080;13.716;2022-07-06T07:43:42;3.20;;;2.30;;
1384;SDS011;686;51.080;13.716;2022-07-06T07:46:08;2.70;;;2.30;;
1384;SDS011;686;51.080;13.716;2022-07-06T07:48:34;4.00;;;2.13;;
1384;SDS011;686;51.080;13.716;2022-07-06T07:50:59;5.50;;;1.57;;
1384;SDS011;686;51.080;13.716;2022-07-06T07:53:25;4.80;;;2.00;;
1384;SDS011;686;51.080;13.716;2022-07-06T07:55:51;4.60;;;1.90;;
1384;SDS011;686;51.080;13.716;2022-07-06T07:58:17;3.03;;;1.70;;
1384;SDS011;686;51.080;13.716;2022-07-06T08:00:43;2.93;;;1.87;;
1384;SDS011;686;51.080;13.716;2022-07-06T08:03:09;5.30;;;2.00;;
1384;SDS011;686;51.080;13.716;2022-07-06T08:05:35;3.83;;;1.43;;
1384;SDS011;686;51.080;13.716;2022-07-06T08:08:01;2.90;;;1.60;;
1384;SDS011;686;51.080;13.716;2022-07-06T08:10:27;2.83;;;1.33;;
1384;SDS011;686;51.080;13.716;2022-07-06T08:12:53;3.30;;;1.60;;
1384;SDS011;686;51.080;13.716;2022-07-06T08:15:18;5.00;;;1.80;;
1384;SDS011;686;51.080;13.716;2022-07-06T08:17:44;2.17;;;1.40;;
1384;SDS011;686;51.080;13.716;2022-07-06T08:20:10;4.00;;;1.30;;
1384;SDS011;686;51.080;13.716;2022-07-06T08:22:36;4.70;;;1.50;;
1384;SDS011;686;51.080;13.716;2022-07-06T08:25:02;1.93;;;1.10;;
1384;SDS011;686;51.080;13.716;2022-07-06T08:27:28;2.10;;;1.80;;
1384;SDS011;686;51.080;13.716;2022-07-06T08:29:54;3.77;;;2.10;;
1384;SDS011;686;51.080;13.716;2022-07-06T08:32:20;3.43;;;2.20;;
1384;SDS011;686;51.080;13.716;2022-07-06T08:34:46;4.63;;;2.10;;
1384;SDS011;686;51.080;13.716;2022-07-06T08:37:13;3.03;;;1.50;;
1384;SDS011;686;51.080;13.716;2022-07-06T08:39:39;5.23;;;2.27;;
1384;SDS011;686;51.080;13.716;2022-07-06T08:42:04;3.00;;;2.13;;
1384;SDS011;686;51.080;13.716;2022-07-06T08:44:32;2.63;;;1.80;;
1384;SDS011;686;51.080;13.716;2022-07-06T08:47:02;5.57;;;2.97;;
1384;SDS011;686;51.080;13.716;2022-07-06T08:49:30;5.90;;;1.20;;
1384;SDS011;686;51.080;13.716;2022-07-06T08:51:57;8.37;;;1.90;;
1384;SDS011;686;51.080;13.716;2022-07-06T08:54:23;2.40;;;1.70;;
1384;SDS011;686;51.080;13.716;2022-07-06T08:56:49;6.70;;;2.70;;
1384;SDS011;686;51.080;13.716;2022-07-06T08:59:15;5.40;;;2.20;;
1384;SDS011;686;51.080;13.716;2022-07-06T09:01:42;3.87;;;2.17;;
1384;SDS011;686;51.080;13.716;2022-07-06T09:04:09;5.40;;;2.40;;
1384;SDS011;686;51.080;13.716;2022-07-06T09:06:38;1.70;;;1.37;;
1384;SDS011;686;51.080;13.716;2022-07-06T09:09:07;3.50;;;1.43;;
1384;SDS011;686;51.080;13.716;2022-07-06T09:11:35;5.00;;;1.50;;
1384;SDS011;686;51.080;13.716;2022-07-06T09:14:03;3.77;;;2.10;;
1384;SDS011;686;51.080;13.716;2022-07-06T09:16:29;2.23;;;1.40;;
1384;SDS011;686;51.080;13.716;2022-07-06T09:18:55;3.20;;;1.70;;
1384;SDS011;686;51.080;13.716;2022-07-06T09:21:29;4.13;;;2.73;;
1384;SDS011;686;51.080;13.716;2022-07-06T09:23:57;2.83;;;2.00;;
1384;SDS011;686;51.080;13.716;2022-07-06T09:26:28;3.73;;;1.67;;
1384;SDS011;686;51.080;13.716;2022-07-06T09:28:57;5.93;;;2.53;;
1384;SDS011;686;51.080;13.716;2022-07-06T09:31:24;3.13;;;1.90;;
1384;SDS011;686;51.080;13.716;2022-07-06T09:33:57;4.63;;;2.20;;
1384;SDS011;686;51.080;13.716;2022-07-06T09:41:40;3.47;;;1.97;;
1384;SDS011;686;51.080;13.716;2022-07-06T09:44:06;5.37;;;2.10;;
1384;SDS011;686;51.080;13.716;2022-07-06T09:46:42;2.90;;;2.50;;
1384;SDS011;686;51.080;13.716;2022-07-06T09:49:11;2.60;;;1.53;;
1384;SDS011;686;51.080;13.716;2022-07-06T09:51:37;4.30;;;2.27;;
1384;SDS011;686;51.080;13.716;2022-07-06T09:54:06;5.07;;;2.47;;
1384;SDS011;686;51.080;13.716;2022-07-06T09:56:39;5.73;;;2.07;;
1384;SDS011;686;51.080;13.716;2022-07-06T09:59:09;3.73;;;2.80;;
1384;SDS011;686;51.080;13.716;2022-07-06T10:01:40;4.13;;;2.37;;
1384;SDS011;686;51.080;13.716;2022-07-06T10:04:06;4.03;;;1.83;;
1384;SDS011;686;51.080;13.716;2022-07-06T10:06:33;2.93;;;2.17;;
1384;SDS011;686;51.080;13.716;2022-07-06T10:08:59;3.73;;;1.90;;
1384;SDS011;686;51.080;13.716;2022-07-06T10:11:27;5.43;;;2.60;;
1384;SDS011;686;51.080;13.716;2022-07-06T10:13:54;3.67;;;2.27;;
1384;SDS011;686;51.080;13.716;2022-07-06T10:16:25;3.67;;;2.47;;
1384;SDS011;686;51.080;13.716;2022-07-06T10:18:51;5.20;;;2.07;;
1384;SDS011;686;51.080;13.716;2022-07-06T10:21:23;2.00;;;1.70;;
1384;SDS011;686;51.080;13.716;2022-07-06T10:23:49;2.20;;;1.70;;
1384;SDS011;686;51.080;13.716;2022-07-06T10:26:16;2.83;;;2.10;;
1384;SDS011;686;51.080;13.716;2022-07-06T10:28:43;4.60;;;1.93;;
1384;SDS011;686;51.080;13.716;2022-07-06T10:31:12;4.10;;;1.77;;
1384;SDS011;686;51.080;13.716;2022-07-06T10:33:39;12.03;;;6.93;;
1384;SDS011;686;51.080;13.716;2022-07-06T10:36:07;3.57;;;2.50;;
1384;SDS011;686;51.080;13.716;2022-07-06T10:38:34;3.40;;;2.27;;
1384;SDS011;686;51.080;13.716;2022-07-06T10:41:04;3.80;;;1.80;;
1384;SDS011;686;51.080;13.716;2022-07-06T10:46:06;2.17;;;1.57;;
1384;SDS011;686;51.080;13.716;2022-07-06T10:48:46;2.10;;;1.80;;
1384;SDS011;686;51.080;13.716;2022-07-06T10:51:21;6.73;;;2.53;;
1384;SDS011;686;51.080;13.716;2022-07-06T10:53:54;2.63;;;1.70;;
1384;SDS011;686;51.080;13.716;2022-07-06T10:56:36;6.37;;;1.80;;
1384;SDS011;686;51.080;13.716;2022-07-06T10:59:22;3.27;;;1.50;;
1384;SDS011;686;51.080;13.716;2022-07-06T11:04:36;4.60;;;2.27;;
1384;SDS011;686;51.080;13.716;2022-07-06T11:07:07;6.90;;;2.50;;
1384;SDS011;686;51.080;13.716;2022-07-06T11:09:34;3.73;;;1.70;;
1384;SDS011;686;51.080;13.716;2022-07-06T11:12:11;3.50;;;2.10;;
1384;SDS011;686;51.080;13.716;2022-07-06T11:14:40;6.17;;;2.20;;
1384;SDS011;686;51.080;13.716;2022-07-06T11:17:06;4.50;;;2.80;;
1384;SDS011;686;51.080;13.716;2022-07-06T11:19:35;1.90;;;1.60;;
1384;SDS011;686;51.080;13.716;2022-07-06T11:22:05;5.90;;;2.40;;
1384;SDS011;686;51.080;13.716;2022-07-06T11:24:33;6.67;;;2.20;;
1384;SDS011;686;51.080;13.716;2022-07-06T11:27:00;2.43;;;1.80;;
1384;SDS011;686;51.080;13.716;2022-07-06T11:29:28;4.60;;;2.43;;
1384;SDS011;686;51.080;13.716;2022-07-06T11:31:56;4.70;;;2.10;;
1384;SDS011;686;51.080;13.716;2022-07-06T11:34:24;2.77;;;1.87;;
1384;SDS011;686;51.080;13.716;2022-07-06T11:36:58;2.37;;;1.63;;
1384;SDS011;686;51.080;13.716;2022-07-06T11:39:31;2.67;;;1.80;;
1384;SDS011;686;51.080;13.716;2022-07-06T11:41:58;4.83;;;3.30;;
1384;SDS011;686;51.080;13.716;2022-07-06T11:44:25;2.17;;;1.80;;
1384;SDS011;686;51.080;13.716;2022-07-06T11:46:52;4.73;;;2.43;;
1384;SDS011;686;51.080;13.716;2022-07-06T11:49:20;4.40;;;1.80;;
1384;SDS011;686;51.080;13.716;2022-07-06T11:51:46;3.70;;;2.23;;
1384;SDS011;686;51.080;13.716;2022-07-06T11:54:13;4.27;;;2.40;;
1384;SDS011;686;51.080;13.716;2022-07-06T11:56:47;5.73;;;3.50;;
1384;SDS011;686;51.080;13.716;2022-07-06T11:59:22;2.90;;;2.30;;
1384;SDS011;686;51.080;13.716;2022-07-06T12:01:50;4.97;;;1.90;;
1384;SDS011;686;51.080;13.716;2022-07-06T12:04:24;5.13;;;1.73;;
1384;SDS011;686;51.080;13.716;2022-07-06T12:06:50;4.63;;;2.53;;
1384;SDS011;686;51.080;13.716;2022-07-06T12:09:15;2.60;;;1.80;;
1384;SDS011;686;51.080;13.716;2022-07-06T12:11:43;4.00;;;2.07;;
1384;SDS011;686;51.080;13.716;2022-07-06T12:14:20;5.40;;;3.00;;
1384;SDS011;686;51.080;13.716;2022-07-06T12:16:47;8.83;;;2.70;;
1384;SDS011;686;51.080;13.716;2022-07-06T12:19:14;2.93;;;1.53;;
1384;SDS011;686;51.080;13.716;2022-07-06T12:21:45;2.47;;;1.83;;
1384;SDS011;686;51.080;13.716;2022-07-06T12:24:19;4.03;;;1.70;;
1384;SDS011;686;51.080;13.716;2022-07-06T12:26:47;4.57;;;1.90;;
1384;SDS011;686;51.080;13.716;2022-07-06T12:29:14;2.97;;;2.00;;
1384;SDS011;686;51.080;13.716;2022-07-06T12:31:41;3.30;;;2.07;;
1384;SDS011;686;51.080;13.716;2022-07-06T12:36:50;12.70;;;3.00;;
1384;SDS011;686;51.080;13.716;2022-07-06T12:39:21;4.60;;;2.23;;
1384;SDS011;686;51.080;13.716;2022-07-06T12:42:12;2.37;;;1.67;;
1384;SDS011;686;51.080;13.716;2022-07-06T12:44:44;3.80;;;2.50;;
1384;SDS011;686;51.080;13.716;2022-07-06T12:47:11;4.90;;;2.47;;
1384;SDS011;686;51.080;13.716;2022-07-06T12:49:41;1.53;;;1.43;;
1384;SDS011;686;51.080;13.716;2022-07-06T12:52:11;3.90;;;1.50;;
1384;SDS011;686;51.080;13.716;2022-07-06T12:54:46;3.97;;;1.60;;
1384;SDS011;686;51.080;13.716;2022-07-06T12:57:14;2.30;;;2.07;;
1384;SDS011;686;51.080;13.716;2022-07-06T12:59:47;4.50;;;1.43;;
1384;SDS011;686;51.080;13.716;2022-07-06T13:02:23;3.63;;;1.90;;
1384;SDS011;686;51.080;13.716;2022-07-06T13:05:04;3.97;;;1.80;;
1384;SDS011;686;51.080;13.716;2022-07-06T13:07:32;2.90;;;1.70;;
1384;SDS011;686;51.080;13.716;2022-07-06T13:10:01;12.40;;;2.13;;
1384;SDS011;686;51.080;13.716;2022-07-06T13:12:29;2.07;;;1.90;;
1384;SDS011;686;51.080;13.716;2022-07-06T13:14:55;4.03;;;1.60;;
1384;SDS011;686;51.080;13.716;2022-07-06T13:17:21;3.03;;;1.67;;
1384;SDS011;686;51.080;13.716;2022-07-06T13:19:47;3.33;;;2.20;;
1384;SDS011;686;51.080;13.716;2022-07-06T13:22:13;4.20;;;1.53;;
1384;SDS011;686;51.080;13.716;2022-07-06T13:24:39;2.77;;;1.80;;
1384;SDS011;686;51.080;13.716;2022-07-06T13:27:05;5.50;;;2.00;;
1384;SDS011;686;51.080;13.716;2022-07-06T13:29:31;2.60;;;1.37;;
1384;SDS011;686;51.080;13.716;2022-07-06T13:31:57;6.17;;;2.10;;
1384;SDS011;686;51.080;13.716;2022-07-06T13:34:23;5.53;;;2.00;;
1384;SDS011;686;51.080;13.716;2022-07-06T13:36:49;10.83;;;2.00;;
1384;SDS011;686;51.080;13.716;2022-07-06T13:39:16;2.20;;;1.60;;
1384;SDS011;686;51.080;13.716;2022-07-06T13:41:42;3.37;;;1.97;;
1384;SDS011;686;51.080;13.716;2022-07-06T13:44:08;2.37;;;1.97;;
1384;SDS011;686;51.080;13.716;2022-07-06T13:46:34;1.70;;;1.60;;
1384;SDS011;686;51.080;13.716;2022-07-06T13:49:02;6.90;;;1.47;;
1384;SDS011;686;51.080;13.716;2022-07-06T13:51:29;5.00;;;1.47;;
1384;SDS011;686;51.080;13.716;2022-07-06T13:53:56;3.50;;;1.90;;
1384;SDS011;686;51.080;13.716;2022-07-06T13:56:22;2.50;;;1.57;;
1384;SDS011;686;51.080;13.716;2022-07-06T13:58:48;3.57;;;1.50;;
1384;SDS011;686;51.080;13.716;2022-07-06T14:01:14;2.90;;;1.60;;
1384;SDS011;686;51.080;13.716;2022-07-06T14:03:39;1.70;;;1.40;;
1384;SDS011;686;51.080;13.716;2022-07-06T14:06:06;2.33;;;1.57;;
1384;SDS011;686;51.080;13.716;2022-07-06T14:08:35;1.80;;;1.47;;
1384;SDS011;686;51.080;13.716;2022-07-06T14:11:02;2.20;;;1.70;;
1384;SDS011;686;51.080;13.716;2022-07-06T14:13:29;1.77;;;1.47;;
1384;SDS011;686;51.080;13.716;2022-07-06T14:15:55;5.37;;;2.60;;
1384;SDS011;686;51.080;13.716;2022-07-06T14:18:21;1.60;;;1.50;;
1384;SDS011;686;51.080;13.716;2022-07-06T14:20:47;3.20;;;1.50;;
1384;SDS011;686;51.080;13.716;2022-07-06T14:23:14;5.13;;;1.80;;
1384;SDS011;686;51.080;13.716;2022-07-06T14:25:42;1.80;;;1.70;;
1384;SDS011;686;51.080;13.716;2022-07-06T14:28:08;2.87;;;1.30;;
1384;SDS011;686;51.080;13.716;2022-07-06T14:30:35;3.80;;;1.90;;
1384;SDS011;686;51.080;13.716;2022-07-06T14:33:05;7.13;;;1.40;;
1384;SDS011;686;51.080;13.716;2022-07-06T14:35:35;3.10;;;1.20;;
1384;SDS011;686;51.080;13.716;2022-07-06T14:38:02;5.50;;;1.37;;
1384;SDS011;686;51.080;13.716;2022-07-06T14:40:29;2.73;;;1.20;;
1384;SDS011;686;51.080;13.716;2022-07-06T14:42:55;4.30;;;2.50;;
1384;SDS011;686;51.080;13.716;2022-07-06T14:45:22;5.93;;;2.70;;
1384;SDS011;686;51.080;13.716;2022-07-06T14:47:48;3.10;;;1.73;;
1384;SDS011;686;51.080;13.716;2022-07-06T14:50:14;1.40;;;1.30;;
1384;SDS011;686;51.080;13.716;2022-07-06T14:52:40;2.90;;;1.43;;
1384;SDS011;686;51.080;13.716;2022-07-06T14:55:05;2.03;;;1.53;;
1384;SDS011;686;51.080;13.716;2022-07-06T14:57:31;3.00;;;2.20;;
1384;SDS011;686;51.080;13.716;2022-07-06T14:59:57;5.37;;;1.43;;
1384;SDS011;686;51.080;13.716;2022-07-06T15:02:23;1.50;;;0.93;;
1384;SDS011;686;51.080;13.716;2022-07-06T15:04:49;5.60;;;2.90;;
1384;SDS011;686;51.080;13.716;2022-07-06T15:07:14;4.30;;;1.40;;
1384;SDS011;686;51.080;13.716;2022-07-06T15:09:40;3.27;;;1.20;;
1384;SDS011;686;51.080;13.716;2022-07-06T15:12:06;3.00;;;1.47;;
1384;SDS011;686;51.080;13.716;2022-07-06T15:14:33;7.37;;;1.60;;
1384;SDS011;686;51.080;13.716;2022-07-06T15:16:58;2.97;;;1.27;;
1384;SDS011;686;51.080;13.716;2022-07-06T15:19:24;3.50;;;1.50;;
1384;SDS011;686;51.080;13.716;2022-07-06T15:21:52;2.80;;;1.30;;
1384;SDS011;686;51.080;13.716;2022-07-06T15:24:19;2.23;;;1.43;;
1384;SDS011;686;51.080;13.716;2022-07-06T15:26:46;5.80;;;1.60;;
1384;SDS011;686;51.080;13.716;2022-07-06T15:29:12;2.40;;;1.10;;
1384;SDS011;686;51.080;13.716;2022-07-06T15:31:38;4.50;;;1.40;;
1384;SDS011;686;51.080;13.716;2022-07-06T15:34:04;4.07;;;2.03;;
1384;SDS011;686;51.080;13.716;2022-07-06T15:36:30;4.93;;;1.70;;
1384;SDS011;686;51.080;13.716;2022-07-06T15:38:55;2.73;;;1.70;;
1384;SDS011;686;51.080;13.716;2022-07-06T15:41:21;3.63;;;1.87;;
1384;SDS011;686;51.080;13.716;2022-07-06T15:43:47;2.10;;;1.20;;
1384;SDS011;686;51.080;13.716;2022-07-06T15:46:13;2.63;;;1.37;;
1384;SDS011;686;51.080;13.716;2022-07-06T15:48:38;8.53;;;1.50;;
1384;SDS011;686;51.080;13.716;2022-07-06T15:51:04;3.63;;;1.60;;
1384;SDS011;686;51.080;13.716;2022-07-06T15:53:30;2.57;;;1.50;;
1384;SDS011;686;51.080;13.716;2022-07-06T15:55:57;1.40;;;1.10;;
1384;SDS011;686;51.080;13.716;2022-07-06T15:58:23;5.57;;;1.03;;
1384;SDS011;686;51.080;13.716;2022-07-06T16:00:50;4.40;;;1.80;;
1384;SDS011;686;51.080;13.716;2022-07-06T16:03:16;6.07;;;1.37;;
1384;SDS011;686;51.080;13.716;2022-07-06T16:05:41;3.03;;;1.63;;
1384;SDS011;686;51.080;13.716;2022-07-06T16:08:07;2.90;;;1.40;;
1384;SDS011;686;51.080;13.716;2022-07-06T16:10:33;5.23;;;1.57;;
1384;SDS011;686;51.080;13.716;2022-07-06T16:12:59;1.80;;;1.23;;
1384;SDS011;686;51.080;13.716;2022-07-06T16:15:25;1.77;;;1.37;;
1384;SDS011;686;51.080;13.716;2022-07-06T16:17:51;2.90;;;1.60;;
1384;SDS011;686;51.080;13.716;2022-07-06T16:20:17;12.37;;;2.33;;
1384;SDS011;686;51.080;13.716;2022-07-06T16:22:44;2.73;;;1.70;;
1384;SDS011;686;51.080;13.716;2022-07-06T16:25:13;2.00;;;1.13;;
1384;SDS011;686;51.080;13.716;2022-07-06T16:27:40;4.30;;;1.20;;
1384;SDS011;686;51.080;13.716;2022-07-06T16:30:06;1.40;;;1.03;;
1384;SDS011;686;51.080;13.716;2022-07-06T16:32:33;3.40;;;1.10;;